Tiempo atmosférico en la estación meteorológica de Benamejí, Córdoba (465 m.)

Fecha
DESCASC
Temp. máxima en grados centígrados (hora)
DESCASC
Temp. mínima en grados centígrados (hora)
DESCASC
Temp. media en grados centígrados
DESCASC
Racha de viento máxima en m/sg (hora)
DESCASC
Velocidad máxima media en intervalos de 10 minutos(hora)
DESCASC
Precipitaciones diarias en mm
DESCASC
Precipitaciones de 00:00 a 06:00 en mm
DESCASC
Precipitaciones de 06:00 a 12:00 en mm
DESCASC
Precipitaciones de 12:00 a 18:00 en mm
DESCASC
Precipitaciones de 18:00 a 24:00 en mm
DESCASC
21-08-2017 33.9 (16:20) 21.9 (04:50) 27.9 11.67 (13:10) 8.61 (17:40) 0 0 0 0 0
20-08-2017 34.1 (16:20) 21.8 (08:00) 27.9 12.5 (17:00) 8.61 (14:30) 0 0 0 0 0
19-08-2017 38.4 (16:50) 22.6 (07:30) 30.5 10.28 (17:40) 6.94 (18:20) 0 0 0 0 0
18-08-2017 37.7 (15:20) 21.4 (07:40) 29.6 9.44 (16:20) 5.56 (18:20) 0 0 0 0 0
17-08-2017 36.5 (16:00) 21.2 (00:00) 28.9 9.72 (20:50) 6.94 (20:40) 0 0 0 0 0
16-08-2017 37.3 (16:40) 21.9 (00:00) 29.6 8.89 (16:20) 5 (16:20) 0 0 0 0 0
15-08-2017 35.5 (17:20) 20.3 (00:00) 27.9 8.61 (00:20) 6.39 (00:20) 0 0 0 0 0
14-08-2017 32.1 (16:20) 20.2 (07:00) 26.1 11.39 (20:20) 8.06 (20:40) 0 0 0 0 0
13-08-2017 32 (14:30) 18.9 (00:00) 25.4 11.67 (16:40) 8.61 (16:40) 0 0 0 0 0
12-08-2017 31.6 (14:50) 19.1 (00:00) 25.4 12.78 (16:20) 9.72 (16:00) 0 0 0 0 0
11-08-2017 32.6 (17:10) 19.4 (00:00) 26 9.17 (17:40) 6.94 (21:40) 0 0 0 0 0
10-08-2017 30.8 (15:40) 18.2 (00:00) 24.5 10.28 (18:40) 7.22 (19:10) 0 0 0 0 0
09-08-2017 32 (17:10) 19.4 (00:00) 25.7 10.28 (18:20) 5.83 (19:00) 0 0 0 0 0
08-08-2017 33.8 (19:00) 22.2 (00:00) 28 9.72 (15:00) 5.56 (16:40) 0 0 0 0 0
07-08-2017 39.4 (15:00) 24.1 (00:00) 31.8 9.17 (16:50) 6.67 (17:20) 0 0 0 0 0
06-08-2017 40.3 (17:40) 24.8 (00:00) 32.5 10 (20:30) 7.22 (21:00) 0 0 0 0 0
05-08-2017 40.3 (16:30) 25.4 (00:00) 32.8 9.44 (14:00) 5.83 (19:20) 0 0 0 0 0
04-08-2017 41.2 (17:30) 22.3 (00:00) 31.8 6.94 (23:10) 5 (22:30) 0 0 0 0 0
03-08-2017 38.6 (18:20) 20.7 (00:00) 29.6 12.78 (14:30) 4.44 (17:50) 0 0 0 0 0
02-08-2017 36.1 (17:10) 19.2 (00:00) 27.6 8.33 (18:30) 4.72 (18:30) 0 0 0 0 0
01-08-2017 30.9 (18:10) 19.5 (00:00) 25.2 7.5 (18:40) 4.44 (19:20) 0 0 0 0 0
31-07-2017 35.1 (17:50) 22.4 (00:00) 28.7 9.17 (17:00) 5.83 (20:00) 0 0 0 0 0
30-07-2017 39.3 (15:40) 22 (00:00) 30.6 10.56 (14:20) 5.56 (14:40) 0 0 0 0 0
29-07-2017 38.6 (17:40) 21.7 (00:00) 30.1 9.72 (16:20) 5.28 (20:00) 0 0 0 0 0
28-07-2017 38.4 (16:20) 21.9 (00:00) 30.2 8.89 (17:20) 4.72 (18:10) 0 0 0 0 0
27-07-2017 37.7 (17:20) 20.9 (00:00) 29.3 9.44 (15:00) 4.44 (15:50) 0 0 0 0 0
26-07-2017 34 (17:30) 20.6 (00:00) 27.3 6.67 (15:00) 4.17 (18:30) 0 0 0 0 0
25-07-2017 37.1 (17:10) 21.9 (00:00) 29.5 10.83 (17:40) 6.67 (17:40) 0 0 0 0 0
24-07-2017 35.8 (17:30) 20.5 (00:00) 28.1 9.72 (16:40) 5.28 (17:00) 0 0 0 0 0
23-07-2017 35.6 (18:00) 19.7 (00:00) 27.6 7.78 (17:00) 4.72 (19:20) 0 0 0 0 0

Gráficas

Temp. máximas Temp. mínimas Temp. medias Precipitaciones Rachas de viento máximas Velocidades máximas media en intervalos de 10 minutos

Datos horarios

Fecha y hora oficial Temperatura (ºC) Velocidad del viento (km/h) Dirección del viento Racha (km/h) Dirección de racha Precipitación (mm) Presión (hPa) Tendencia (hPa) Humedad (%)
2017-08-21 23:00:00 24.2 23 Sur 33 Sur 0 -- -- 49
2017-08-21 22:00:00 25.3 24 Sur 36 Sur 0 -- -- 45
2017-08-21 21:00:00 27.3 24 Sur 33 Sur 0 -- -- 39
2017-08-21 20:00:00 30.9 24 Sur 33 Sudoeste 0 -- -- 29
2017-08-21 19:00:00 32.6 25 Sur 41 Sur 0 -- -- 26
2017-08-21 18:00:00 33.4 26 Sudoeste 41 Sudoeste 0 -- -- 24
2017-08-21 17:00:00 33.6 28 Sudoeste 40 Sur 0 -- -- 25
2017-08-21 16:00:00 33.5 28 Sur 39 Sur 0 -- -- 24
2017-08-21 15:00:00 33.6 23 Sur 36 Sudoeste 0 -- -- 26
2017-08-21 14:00:00 32.8 23 Sur 42 Sur 0 -- -- 27
2017-08-21 13:00:00 31.6 28 Sur 41 Sur 0 -- -- 27
2017-08-21 12:00:00 30.6 22 Sur 32 Sur 0 -- -- 29
2017-08-21 11:00:00 28.3 8 Sur 18 Sur 0 -- -- 38
2017-08-21 10:00:00 26.3 11 Sur 17 Sudeste 0 -- -- 48
2017-08-21 09:00:00 24 8 Sudeste 15 Sudeste 0 -- -- 59
2017-08-21 08:00:00 22.2 6 Sudeste 17 Sudeste 0 -- -- 67
2017-08-21 07:00:00 22.6 14 Sudeste 26 Sur 0 -- -- 67
2017-08-21 06:00:00 22.6 17 Sur 25 Sur 0 -- -- 70
2017-08-21 05:00:00 21.9 14 Sur 18 Sur 0 -- -- 76
2017-08-21 04:00:00 22.4 10 Sudoeste 21 Sur 0 -- -- 74
2017-08-21 03:00:00 23.3 13 Sur 22 Sudoeste 0 -- -- 63
2017-08-21 02:00:00 24.2 14 Sur 23 Sur 0 -- -- 59
2017-08-21 01:00:00 24.7 17 Sur 29 Sur 0 -- -- 57
2017-08-21 00:00:00 24.7 19 Sur 29 Sur 0 -- -- 57
2017-08-20 23:00:00 25.1 17 Sur 32 Sur 0 -- -- 57
2017-08-20 22:00:00 25.5 14 Sur 24 Sudoeste 0 -- -- 56
2017-08-20 21:00:00 27.9 17 Sur 31 Sur 0 -- -- 47
2017-08-20 20:00:00 30.9 19 Sudoeste 34 Sur 0 -- -- 39
2017-08-20 19:00:00 32.8 23 Sur 39 Sur 0 -- -- 32
2017-08-20 18:00:00 33.6 26 Sur 40 Sur 0 -- -- 29
2017-08-20 17:00:00 34 29 Sur 45 Sur 0 -- -- 27
2017-08-20 16:00:00 34 30 Sur 42 Sur 0 -- -- 30
2017-08-20 15:00:00 33.7 30 Sur 43 Sur 0 -- -- 30
2017-08-20 14:00:00 33.4 28 Sur 43 Sur 0 -- -- 30
2017-08-20 13:00:00 33.5 18 Sur 28 Sur 0 -- -- 25
2017-08-20 12:00:00 31.8 9 Sur 18 Sur 0 -- -- 28
2017-08-20 11:00:00 29.6 8 Sudeste 16 Sur 0 -- -- 32
2017-08-20 10:00:00 26.9 11 Sur 17 Sudeste 0 -- -- 42
2017-08-20 09:00:00 23.9 7 Sur 12 Sur 0 -- -- 55
2017-08-20 08:00:00 21.8 5 Sur 15 Sur 0 -- -- 63
2017-08-20 07:00:00 22.3 8 Sur 14 Sur 0 -- -- 63
2017-08-20 06:00:00 23.1 9 Sudeste 21 Sudeste 0 -- -- 61
2017-08-20 05:00:00 22.9 12 Sudeste 20 Sur 0 -- -- 64
2017-08-20 04:00:00 22.7 6 Sur 12 Sur 0 -- -- 66
2017-08-20 03:00:00 23.5 10 Sur 17 Sur 0 -- -- 61
2017-08-20 02:00:00 23.6 15 Sur 17 Sur 0 -- -- 61
2017-08-20 01:00:00 24.8 9 Sur 21 Sur 0 -- -- 56
2017-08-20 00:00:00 25.8 18 Sur 28 Sur 0 -- -- 53
2017-08-19 23:00:00 27 19 Sur 30 Sur 0 -- -- 47
2017-08-19 22:00:00 28.4 22 Sur 30 Sur 0 -- -- 42
2017-08-19 21:00:00 31 18 Sur 29 Sur 0 -- -- 32
2017-08-19 20:00:00 33.8 22 Sur 30 Sudoeste 0 -- -- 26
2017-08-19 19:00:00 35.9 24 Sudoeste 35 Sur 0 -- -- 21
2017-08-19 18:00:00 37.1 23 Sur 37 Sur 0 -- -- 21
2017-08-19 17:00:00 38.4 15 Sudoeste 33 Sur 0 -- -- 15
2017-08-19 16:00:00 38.2 17 Sudoeste 29 Sudoeste 0 -- -- 15
2017-08-19 15:00:00 37.7 19 Sudoeste 28 Sudoeste 0 -- -- 18
2017-08-19 14:00:00 37.4 12 Sudoeste 21 Sudoeste 0 -- -- 16
2017-08-19 13:00:00 36.3 10 Sudoeste 18 Sudoeste 0 -- -- 16
2017-08-19 12:00:00 33.7 7 Sur 14 Sur 0 -- -- 24
2017-08-19 11:00:00 30.4 5 Nordeste 7 Nordeste 0 -- -- 31
2017-08-19 10:00:00 28 3 Sur 6 Sudeste 0 -- -- 34
2017-08-19 09:00:00 24.2 2 Sudeste 12 Este 0 -- -- 42
2017-08-19 08:00:00 23.2 8 Este 10 Este 0 -- -- 42
2017-08-19 07:00:00 23.1 3 Este 8 Nordeste 0 -- -- 42
2017-08-19 06:00:00 23.9 0 Calma 6 Sur 0 -- -- 40
2017-08-19 05:00:00 23.9 5 Sur 9 Sur 0 -- -- 41
2017-08-19 04:00:00 24.5 9 Sudeste 12 Sudeste 0 -- -- 41
2017-08-19 03:00:00 25.4 8 Sudeste 19 Sur 0 -- -- 39
2017-08-19 02:00:00 25.5 17 Sur 21 Sur 0 -- -- 40
2017-08-19 01:00:00 26.7 14 Sur 17 Sur 0 -- -- 37
2017-08-19 00:00:00 27.2 10 Sur 21 Sur 0 -- -- 35
2017-08-18 23:00:00 28.4 17 Sur 22 Sur 0 -- -- 32
2017-08-18 22:00:00 30.4 17 Sur 23 Sur 0 -- -- 26
2017-08-18 21:00:00 32.8 15 Sur 24 Sur 0 -- -- 22
2017-08-18 20:00:00 35.5 19 Sur 24 Sudoeste 0 -- -- 19
2017-08-18 19:00:00 37 15 Sudoeste 27 Sudoeste 0 -- -- 16
2017-08-18 18:00:00 37.4 15 Sudoeste 27 Sudoeste 0 -- -- 14
2017-08-18 17:00:00 37.6 16 Sur 34 Sur 0 -- -- 16
2017-08-18 16:00:00 37.5 17 Sur 27 Sur 0 -- -- 18
2017-08-18 15:00:00 37.1 8 Sudoeste 24 Sudoeste 0 -- -- 15
2017-08-18 14:00:00 35.6 9 Sudoeste 18 Oeste 0 -- -- 15
2017-08-18 13:00:00 34.1 5 Norte 12 Sudoeste 0 -- -- 19
2017-08-18 12:00:00 32.3 5 Este 12 Sudeste 0 -- -- 26
2017-08-18 11:00:00 29.5 7 Sudeste 11 Sudeste 0 -- -- 37
2017-08-18 10:00:00 26.2 7 Sur 15 Sur 0 -- -- 50
2017-08-18 09:00:00 23.4 6 Sur 13 Sur 0 -- -- 68
2017-08-18 08:00:00 21.6 10 Sur 16 Sur 0 -- -- 74
2017-08-18 07:00:00 21.6 6 Sur 16 Sur 0 -- -- 72
2017-08-18 06:00:00 21.7 12 Sur 15 Sur 0 -- -- 69
2017-08-18 05:00:00 23.1 5 Sudeste 15 Sudeste 0 -- -- 63
2017-08-18 04:00:00 23.5 12 Sudeste 18 Sudeste 0 -- -- 62
2017-08-18 03:00:00 23.6 9 Sur 10 Sur 0 -- -- 60
2017-08-18 02:00:00 24.4 4 Sudeste 20 Sur 0 -- -- 55
2017-08-18 01:00:00 24.9 13 Sur 19 Sur 0 -- -- 53
2017-08-18 00:00:00 26.2 3 Sur 22 Sur 0 -- -- 49
2017-08-17 23:00:00 27.1 15 Sur 24 Sur 0 -- -- 47
2017-08-17 22:00:00 28.6 20 Sudoeste 32 Sur 0 -- -- 43
2017-08-17 21:00:00 30.8 23 Sur 35 Sur 0 -- -- 35
2017-08-17 20:00:00 34 19 Sudoeste 27 Sudoeste 0 -- -- 25
2017-08-17 19:00:00 36.1 16 Sudoeste 27 Sur 0 -- -- 16
2017-08-17 18:00:00 36.3 15 Sudoeste 30 Sur 0 -- -- 17
2017-08-17 17:00:00 36.1 19 Sur 32 Sur 0 -- -- 21
2017-08-17 16:00:00 36.5 12 Sudoeste 28 Sudoeste 0 -- -- 20
2017-08-17 15:00:00 35.4 11 Sudoeste 27 Sur 0 -- -- 22
2017-08-17 14:00:00 35.4 16 Sur 28 Sur 0 -- -- 24
2017-08-17 13:00:00 34 13 Sudoeste 23 Sur 0 -- -- 25
2017-08-17 12:00:00 32.6 10 Sur 17 Sur 0 -- -- 24
2017-08-17 11:00:00 29.8 5 Sudeste 9 Sur 0 -- -- 24
2017-08-17 10:00:00 26.4 6 Sur 9 Sudeste 0 -- -- 32
2017-08-17 09:00:00 23.1 8 Sudeste 18 Sur 0 -- -- 54
2017-08-17 08:00:00 21.3 10 Sur 14 Sur 0 -- -- 60
2017-08-17 07:00:00 21.7 10 Sudeste 14 Sur 0 -- -- 48
2017-08-17 06:00:00 22.9 4 Sudeste 12 Sur 0 -- -- 24
2017-08-17 05:00:00 24.2 5 Este 12 Este 0 -- -- 26
2017-08-17 04:00:00 24.6 7 Sudeste 11 Este 0 -- -- 27
2017-08-17 03:00:00 26.6 9 Este 10 Sudeste 0 -- -- 20
2017-08-17 02:00:00 26.8 8 Nordeste 13 Este 0 -- -- 18
2017-08-17 01:00:00 27.7 6 Nordeste 9 Nordeste 0 -- -- 16
2017-08-17 00:00:00 29 0 Calma 13 Sudoeste 0 -- -- 15
2017-08-16 23:00:00 29.5 10 Sudoeste 13 Sudoeste 0 -- -- 12
2017-08-16 22:00:00 31 8 Oeste 14 Noroeste 0 -- -- 13
2017-08-16 21:00:00 33.7 10 Noroeste 22 Oeste 0 -- -- 11
2017-08-16 20:00:00 35.6 15 Noroeste 28 Oeste 0 -- -- 9
2017-08-16 19:00:00 36.8 16 Oeste 27 Noroeste 0 -- -- 9
2017-08-16 18:00:00 36.9 14 Noroeste 30 Noroeste 0 -- -- 9
2017-08-16 17:00:00 36.9 15 Noroeste 32 Noroeste 0 -- -- 10
2017-08-16 16:00:00 36.6 8 Noroeste 26 Oeste 0 -- -- 13
2017-08-16 15:00:00 36 7 Noroeste 19 Noroeste 0 -- -- 14
2017-08-16 14:00:00 34.6 11 Noroeste 20 Oeste 0 -- -- 15
2017-08-16 13:00:00 33 3 Norte 12 Oeste 0 -- -- 21
2017-08-16 12:00:00 30.6 4 Noroeste 11 Oeste 0 -- -- 33
2017-08-16 11:00:00 28 3 Nordeste 6 Sur 0 -- -- 40
2017-08-16 10:00:00 25.8 3 Norte 6 Nordeste 0 -- -- 48
2017-08-16 09:00:00 23.4 4 Este 7 Este 0 -- -- 56
2017-08-16 08:00:00 22 3 Sur 6 Sudeste 0 -- -- 68
2017-08-16 07:00:00 22.3 4 Sudeste 10 Sur 0 -- -- 66
2017-08-16 06:00:00 22 9 Sur 11 Sur 0 -- -- 67
2017-08-16 05:00:00 23.1 7 Sudeste 10 Sudeste 0 -- -- 60
2017-08-16 04:00:00 23.7 4 Sudeste 10 Sur 0 -- -- 58
2017-08-16 03:00:00 24.4 8 Sur 13 Sur 0 -- -- 55
2017-08-16 02:00:00 25.3 12 Sur 15 Sur 0 -- -- 52
2017-08-16 01:00:00 26.4 9 Sur 13 Sur 0 -- -- 47
2017-08-16 00:00:00 28.1 9 Oeste 21 Oeste 0 -- -- 40
2017-08-15 23:00:00 28.4 11 Sudoeste 15 Sudoeste 0 -- -- 41
2017-08-15 22:00:00 29.8 12 Sur 18 Sur 0 -- -- 38
2017-08-15 21:00:00 32.8 11 Oeste 23 Oeste 0 -- -- 27
2017-08-15 20:00:00 33.9 15 Noroeste 27 Noroeste 0 -- -- 26
2017-08-15 19:00:00 34.6 15 Noroeste 25 Noroeste 0 -- -- 26
2017-08-15 18:00:00 35.3 14 Noroeste 24 Noroeste 0 -- -- 25
2017-08-15 17:00:00 35.3 12 Noroeste 25 Sudoeste 0 -- -- 26
2017-08-15 16:00:00 34.6 12 Noroeste 24 Noroeste 0 -- -- 27
2017-08-15 15:00:00 33.4 7 Sudoeste 17 Norte 0 -- -- 30
2017-08-15 14:00:00 32 9 Oeste 20 Noroeste 0 -- -- 33
2017-08-15 13:00:00 30.5 9 Oeste 17 Oeste 0 -- -- 37
2017-08-15 12:00:00 28.8 9 Noroeste 15 Noroeste 0 -- -- 40
2017-08-15 11:00:00 26.7 5 Nordeste 9 Nordeste 0 -- -- 49
2017-08-15 10:00:00 24.8 3 Nordeste 7 Nordeste 0 -- -- 59
2017-08-15 09:00:00 22.2 0 Calma 5 Sudoeste 0 -- -- 73
2017-08-15 08:00:00 20.3 4 Sudoeste 6 Sur 0 -- -- 78
2017-08-15 07:00:00 20.9 3 Sur 9 Sur 0 -- -- 75
2017-08-15 06:00:00 21.3 4 Sur 8 Sur 0 -- -- 72
2017-08-15 05:00:00 21.6 5 Sur 9 Sur 0 -- -- 72
2017-08-15 04:00:00 22.3 6 Sur 19 Sur 0 -- -- 68
2017-08-15 03:00:00 22.6 13 Sudoeste 22 Sudoeste 0 -- -- 66
2017-08-15 02:00:00 22.9 13 Sudoeste 19 Sudoeste 0 -- -- 64
2017-08-15 01:00:00 23.2 10 Sudoeste 31 Sur 0 -- -- 58
2017-08-15 00:00:00 23.5 19 Sur 32 Sur 0 -- -- 56
2017-08-14 23:00:00 24 23 Sur 32 Sur 0 -- -- 57
2017-08-14 22:00:00 25 15 Sur 28 Sur 0 -- -- 52
2017-08-14 21:00:00 26 24 Sur 41 Sur 0 -- -- 49
2017-08-14 20:00:00 28.4 26 Sudoeste 37 Sudoeste 0 -- -- 41
2017-08-14 19:00:00 30.6 20 Sudoeste 33 Sudoeste 0 -- -- 35
2017-08-14 18:00:00 30.9 26 Sudoeste 38 Sudoeste 0 -- -- 33
2017-08-14 17:00:00 31 26 Sudoeste 40 Sudoeste 0 -- -- 32
2017-08-14 16:00:00 31.7 23 Sur 36 Sur 0 -- -- 29
2017-08-14 15:00:00 30.9 23 Sur 34 Sur 0 -- -- 30
2017-08-14 14:00:00 30 19 Sur 32 Sur 0 -- -- 32
2017-08-14 13:00:00 28.9 20 Sur 30 Sur 0 -- -- 36
2017-08-14 12:00:00 28 14 Sur 25 Sur 0 -- -- 37
2017-08-14 11:00:00 26.5 8 Sur 14 Sudoeste 0 -- -- 39
2017-08-14 10:00:00 24.8 7 Sur 14 Sur 0 -- -- 46
2017-08-14 09:00:00 22.5 6 Sur 13 Sur 0 -- -- 56
2017-08-14 08:00:00 20.4 9 Sur 13 Sur 0 -- -- 65
2017-08-14 07:00:00 20.2 8 Sur 10 Sur 0 -- -- 67
2017-08-14 06:00:00 20.9 8 Sudeste 15 Sudeste 0 -- -- 64
2017-08-14 05:00:00 21.1 11 Sur 15 Sur 0 -- -- 65
2017-08-14 04:00:00 21.7 8 Sur 24 Sur 0 -- -- 62
2017-08-14 03:00:00 22 20 Sur 34 Sur 0 -- -- 63
2017-08-14 02:00:00 22.1 26 Sur 37 Sur 0 -- -- 63
2017-08-14 01:00:00 21.6 16 Sur 33 Sur 0 -- -- 63
2017-08-14 00:00:00 22.1 19 Sur 30 Sur 0 -- -- 60
2017-08-13 23:00:00 22.7 21 Sur 38 Sur 0 -- -- 57
2017-08-13 22:00:00 24.3 26 Sur 39 Sur 0 -- -- 51
2017-08-13 21:00:00 26.5 23 Sur 34 Sur 0 -- -- 43
2017-08-13 20:00:00 29 25 Sur 35 Sur 0 -- -- 34
2017-08-13 19:00:00 30.6 25 Sur 35 Sur 0 -- -- 28
2017-08-13 18:00:00 31.3 25 Sur 40 Sur 0 -- -- 29
2017-08-13 17:00:00 31.5 29 Sur 42 Sur 0 -- -- 28
2017-08-13 16:00:00 31.7 26 Sur 39 Sur 0 -- -- 29
2017-08-13 15:00:00 31.8 23 Sur 36 Sur 0 -- -- 27
2017-08-13 14:00:00 31.4 14 Sudoeste 24 Sudoeste 0 -- -- 24
2017-08-13 13:00:00 30.3 9 Sudoeste 21 Oeste 0 -- -- 26
2017-08-13 12:00:00 28.6 3 Noroeste 9 Sudoeste 0 -- -- 28
2017-08-13 11:00:00 26.4 5 Nordeste 9 Sur 0 -- -- 35
2017-08-13 10:00:00 24 6 Sur 13 Sur 0 -- -- 42
2017-08-13 09:00:00 21.2 9 Sur 17 Sur 0 -- -- 57
2017-08-13 08:00:00 18.9 12 Sur 16 Sur 0 -- -- 69
2017-08-13 07:00:00 19.7 12 Sur 17 Sur 0 -- -- 61
2017-08-13 06:00:00 20.1 6 Sur 14 Sur 0 -- -- 56
2017-08-13 05:00:00 20.8 4 Sudeste 18 Sur 0 -- -- 51
2017-08-13 04:00:00 21.1 13 Sur 19 Sur 0 -- -- 57
2017-08-13 03:00:00 20.5 11 Sur 18 Sur 0 -- -- 60
2017-08-13 02:00:00 21.2 14 Sudoeste 19 Sudoeste 0 -- -- 57
2017-08-13 01:00:00 21.8 13 Sur 22 Sur 0 -- -- 52
2017-08-13 00:00:00 22.6 11 Sur 24 Sur 0 -- -- 44
2017-08-12 23:00:00 23.4 18 Sur 28 Sur 0 -- -- 43
2017-08-12 22:00:00 24.2 18 Sur 28 Sur 0 -- -- 42
2017-08-12 21:00:00 26.9 18 Sur 32 Sur 0 -- -- 36
2017-08-12 20:00:00 28.2 26 Sudoeste 38 Sur 0 -- -- 36
2017-08-12 19:00:00 30.1 22 Sur 34 Sudoeste 0 -- -- 30
2017-08-12 18:00:00 30.8 22 Sur 38 Sur 0 -- -- 28
2017-08-12 17:00:00 31.1 26 Sur 46 Sur 0 -- -- 26
2017-08-12 16:00:00 30.8 35 Sur 44 Sur 0 -- -- 26
2017-08-12 15:00:00 31.4 29 Sur 43 Sur 0 -- -- 23
2017-08-12 14:00:00 31.1 25 Sur 42 Sur 0 -- -- 21
2017-08-12 13:00:00 30.2 22 Sur 35 Sur 0 -- -- 24
2017-08-12 12:00:00 28.5 8 Sudoeste 21 Sur 0 -- -- 30
2017-08-12 11:00:00 26.5 4 Sudeste 14 Sur 0 -- -- 35
2017-08-12 10:00:00 24.4 8 Sur 17 Sur 0 -- -- 44
2017-08-12 09:00:00 21.7 14 Sur 25 Sur 0 -- -- 56
2017-08-12 08:00:00 19.5 16 Sur 21 Sur 0 -- -- 62
2017-08-12 07:00:00 19.1 9 Sur 17 Sur 0 -- -- 60
2017-08-12 06:00:00 19.3 10 Sur 14 Sur 0 -- -- 56
2017-08-12 05:00:00 19.7 7 Sur 12 Sur 0 -- -- 54
2017-08-12 04:00:00 20 10 Sur 12 Sur 0 -- -- 53
2017-08-12 03:00:00 20.8 5 Sur 11 Sur 0 -- -- 51
2017-08-12 02:00:00 22.6 8 Sudeste 14 Este 0 -- -- 44
2017-08-12 01:00:00 23.1 12 Sudeste 22 Sur 0 -- -- 45
2017-08-12 00:00:00 23.4 17 Sur 28 Sur 0 -- -- 47
2017-08-11 23:00:00 24.2 19 Sur 31 Sur 0 -- -- 36
2017-08-11 22:00:00 25.2 21 Sur 33 Sur 0 -- -- 35
2017-08-11 21:00:00 27.3 24 Sur 33 Sur 0 -- -- 33
2017-08-11 20:00:00 29.8 20 Sur 29 Sur 0 -- -- 29
2017-08-11 19:00:00 31.1 18 Sudoeste 31 Sudoeste 0 -- -- 27
2017-08-11 18:00:00 31.6 22 Sudoeste 33 Sudoeste 0 -- -- 27
2017-08-11 17:00:00 32.4 14 Sur 30 Sur 0 -- -- 27
2017-08-11 16:00:00 31.5 22 Sudoeste 33 Sur 0 -- -- 28
2017-08-11 15:00:00 31 18 Sudoeste 32 Sur 0 -- -- 29
2017-08-11 14:00:00 29.7 18 Sur 30 Sur 0 -- -- 34
2017-08-11 13:00:00 28.8 10 Sudoeste 27 Sudeste 0 -- -- 38
2017-08-11 12:00:00 27.3 4 Sudeste 14 Sudeste 0 -- -- 44
2017-08-11 11:00:00 25.6 6 Este 14 Nordeste 0 -- -- 50
2017-08-11 10:00:00 23.9 6 Nordeste 10 Norte 0 -- -- 58
2017-08-11 09:00:00 21.5 6 Nordeste 16 Sudeste 0 -- -- 69
2017-08-11 08:00:00 19.7 7 Sudeste 13 Sur 0 -- -- 79
2017-08-11 07:00:00 19.7 8 Sudeste 11 Este 0 -- -- 77
2017-08-11 06:00:00 20.5 4 Este 10 Sudeste 0 -- -- 74
2017-08-11 05:00:00 20.8 9 Sudeste 19 Sur 0 -- -- 73
2017-08-11 04:00:00 21.1 12 Sur 21 Sudeste 0 -- -- 72
2017-08-11 03:00:00 21.5 14 Sur 23 Sudeste 0 -- -- 66
2017-08-11 02:00:00 21.8 18 Sur 26 Sur 0 -- -- 65
2017-08-11 01:00:00 21.8 12 Sur 20 Sur 0 -- -- 61
2017-08-11 00:00:00 22 15 Sur 26 Sur 0 -- -- 60
2017-08-10 23:00:00 22.6 18 Sur 27 Sur 0 -- -- 60
2017-08-10 22:00:00 24 19 Sur 28 Sur 0 -- -- 54
2017-08-10 21:00:00 26.1 23 Sur 36 Sur 0 -- -- 47
2017-08-10 20:00:00 27.9 23 Sur 35 Sudoeste 0 -- -- 42
2017-08-10 19:00:00 28.9 24 Sur 37 Sur 0 -- -- 39
2017-08-10 18:00:00 28.9 19 Sur 31 Sur 0 -- -- 37
2017-08-10 17:00:00 29.9 19 Sur 36 Sudoeste 0 -- -- 35
2017-08-10 16:00:00 30.4 18 Sur 35 Sudoeste 0 -- -- 34
2017-08-10 15:00:00 29.5 10 Sur 26 Sur 0 -- -- 34
2017-08-10 14:00:00 30.2 9 Sudoeste 26 Oeste 0 -- -- 27
2017-08-10 13:00:00 28.4 9 Noroeste 18 Oeste 0 -- -- 25
2017-08-10 12:00:00 26.6 6 Oeste 13 Sudoeste 0 -- -- 26
2017-08-10 11:00:00 24.2 4 Noroeste 13 Noroeste 0 -- -- 30
2017-08-10 10:00:00 22.7 4 Oeste 11 Sur 0 -- -- 33
2017-08-10 09:00:00 20.1 4 Sur 10 Sur 0 -- -- 40
2017-08-10 08:00:00 18.3 6 Sur 8 Sur 0 -- -- 44
2017-08-10 07:00:00 18.9 3 Noroeste 9 Noroeste 0 -- -- 41
2017-08-10 06:00:00 19 4 Nordeste 9 Norte 0 -- -- 40
2017-08-10 05:00:00 19.4 7 Nordeste 9 Nordeste 0 -- -- 39
2017-08-10 04:00:00 20.7 5 Este 8 Nordeste 0 -- -- 37
2017-08-10 03:00:00 21.4 4 Este 8 Nordeste 0 -- -- 35
2017-08-10 02:00:00 21.9 6 Nordeste 8 Nordeste 0 -- -- 35
2017-08-10 01:00:00 22.6 3 Nordeste 8 Norte 0 -- -- 33
2017-08-10 00:00:00 23.4 2 Norte 10 Noroeste 0 -- -- 30
2017-08-09 23:00:00 24.4 7 Noroeste 15 Noroeste 0 -- -- 23
2017-08-09 22:00:00 26.1 10 Noroeste 19 Noroeste 0 -- -- 12
2017-08-09 21:00:00 28.2 12 Noroeste 23 Noroeste 0 -- -- 11
2017-08-09 20:00:00 29.4 16 Noroeste 30 Noroeste 0 -- -- 16
2017-08-09 19:00:00 30.7 21 Noroeste 37 Noroeste 0 -- -- 12
2017-08-09 18:00:00 31.8 16 Noroeste 32 Noroeste 0 -- -- 8
2017-08-09 17:00:00 31.4 19 Noroeste 36 Oeste 0 -- -- 10
2017-08-09 16:00:00 31.3 17 Noroeste 33 Noroeste 0 -- -- 13
2017-08-09 15:00:00 30.7 19 Noroeste 33 Noroeste 0 -- -- 14
2017-08-09 14:00:00 31.1 14 Sudoeste 31 Oeste 0 -- -- 10
2017-08-09 13:00:00 30.1 13 Oeste 29 Oeste 0 -- -- 9
2017-08-09 12:00:00 28 12 Sudoeste 19 Sudoeste 0 -- -- 14
2017-08-09 11:00:00 25.8 7 Sur 15 Sur 0 -- -- 19
2017-08-09 10:00:00 23.7 5 Nordeste 8 Nordeste 0 -- -- 23
2017-08-09 09:00:00 21.2 0 Calma 6 Nordeste 0 -- -- 26
2017-08-09 08:00:00 19.5 4 Este 8 Este 0 -- -- 26
2017-08-09 07:00:00 20.3 5 Este 9 Este 0 -- -- 26
2017-08-09 06:00:00 21.1 6 Este 8 Este 0 -- -- 24
2017-08-09 05:00:00 21.4 3 Sudeste 6 Este 0 -- -- 23
2017-08-09 04:00:00 21.1 7 Sur 13 Sur 0 -- -- 23
2017-08-09 03:00:00 21.9 10 Sur 17 Sur 0 -- -- 22
2017-08-09 02:00:00 22.8 5 Sur 10 Sur 0 -- -- 21
2017-08-09 01:00:00 24.3 6 Sudoeste 12 Oeste 0 -- -- 19
2017-08-09 00:00:00 25.4 9 Oeste 19 Oeste 0 -- -- 17
2017-08-08 23:00:00 26.9 11 Oeste 17 Oeste 0 -- -- 10
2017-08-08 22:00:00 29.1 7 Noroeste 19 Noroeste 0 -- -- 7
2017-08-08 21:00:00 31.1 13 Noroeste 24 Noroeste 0 -- -- 8
2017-08-08 20:00:00 32.4 14 Noroeste 25 Norte 0 -- -- 8
2017-08-08 19:00:00 33.8 11 Noroeste 26 Noroeste 0 -- -- 6
2017-08-08 18:00:00 33.5 11 Oeste 26 Oeste 0 -- -- 6
2017-08-08 17:00:00 32.7 15 Noroeste 33 Norte 0 -- -- 6
2017-08-08 16:00:00 32.8 12 Oeste 30 Sudoeste 0 -- -- 8
2017-08-08 15:00:00 32.1 13 Noroeste 35 Oeste 0 -- -- 6
2017-08-08 14:00:00 30.9 13 Oeste 30 Noroeste 0 -- -- 5
2017-08-08 13:00:00 29.3 11 Noroeste 20 Oeste 0 -- -- 12
2017-08-08 12:00:00 26.9 13 Oeste 21 Oeste 0 -- -- 17
2017-08-08 11:00:00 27.3 6 Noroeste 13 Oeste 0 -- -- 18
2017-08-08 10:00:00 25.3 5 Noroeste 8 Noroeste 0 -- -- 19
2017-08-08 09:00:00 23.3 2 Oeste 9 Oeste 0 -- -- 25
2017-08-08 08:00:00 22.2 3 Oeste 8 Noroeste 0 -- -- 25
2017-08-08 07:00:00 23.1 0 Calma 6 Oeste 0 -- -- 23
2017-08-08 06:00:00 23.7 3 Oeste 10 Noroeste 0 -- -- 23
2017-08-08 05:00:00 24.7 8 Noroeste 12 Noroeste 0 -- -- 30
2017-08-08 04:00:00 24.9 7 Sur 17 Sudoeste 0 -- -- 45
2017-08-08 03:00:00 27.1 11 Sur 18 Sudoeste 0 -- -- 23
2017-08-08 02:00:00 27.7 17 Sur 21 Sur 0 -- -- 31
2017-08-08 01:00:00 28.8 12 Sudoeste 23 Sudoeste 0 -- -- 29
2017-08-08 00:00:00 30.1 17 Sudoeste 24 Sudoeste 0 -- -- 27
2017-08-07 23:00:00 31.2 13 Sudoeste 19 Sudoeste 0 -- -- 26
2017-08-07 22:00:00 32.9 12 Oeste 26 Oeste 0 -- -- 26
2017-08-07 21:00:00 34.8 14 Sudoeste 24 Sudoeste 0 -- -- 26
2017-08-07 20:00:00 36.2 13 Sur 30 Sur 0 -- -- 22
2017-08-07 19:00:00 36.4 12 Sur 30 Sudoeste 0 -- -- 20
2017-08-07 18:00:00 36 19 Sur 33 Sur 0 -- -- 22
2017-08-07 17:00:00 37.3 17 Oeste 33 Sudoeste 0 -- -- 18
2017-08-07 16:00:00 38.8 20 Sudoeste 33 Sudoeste 0 -- -- 15
2017-08-07 15:00:00 39.4 19 Sudoeste 31 Sudoeste 0 -- -- 10
2017-08-07 14:00:00 38 13 Sudoeste 31 Sur 0 -- -- 11
2017-08-07 13:00:00 35.6 12 Sur 21 Sur 0 -- -- 18
2017-08-07 12:00:00 32.8 12 Sur 20 Sur 0 -- -- 25
2017-08-07 11:00:00 30.2 3 Sur 12 Noroeste 0 -- -- 32
2017-08-07 10:00:00 27.7 9 Oeste 14 Oeste 0 -- -- 39
2017-08-07 09:00:00 25.9 5 Sudeste 25 Sur 0 -- -- 45
2017-08-07 08:00:00 25.1 16 Sudeste 22 Sur 0 -- -- 38
2017-08-07 07:00:00 25.2 2 Noroeste 18 Oeste 0 -- -- 39
2017-08-07 06:00:00 26.3 4 Noroeste 24 Sudoeste 0 -- -- 32
2017-08-07 05:00:00 26.5 18 Sudeste 30 Sur 0 -- -- 33
2017-08-07 04:00:00 26.3 20 Sur 26 Sudoeste 0 -- -- 32
2017-08-07 03:00:00 26.1 10 Sur 17 Sur 0 -- -- 29
2017-08-07 02:00:00 27.6 8 Este 13 Este 0 -- -- 26
2017-08-07 01:00:00 27.8 10 Sudoeste 19 Sur 0 -- -- 25
2017-08-07 00:00:00 28.6 18 Sur 30 Sur 0 -- -- 24
2017-08-06 23:00:00 30 24 Sur 29 Sur 0 -- -- 22
2017-08-06 22:00:00 31.3 22 Sur 33 Sudoeste 0 -- -- 20
2017-08-06 21:00:00 33.5 26 Sur 36 Sudoeste 0 -- -- 18
2017-08-06 20:00:00 37.6 19 Sudoeste 32 Oeste 0 -- -- 11
2017-08-06 19:00:00 39.5 19 Oeste 33 Oeste 0 -- -- 4
2017-08-06 18:00:00 39.8 21 Oeste 34 Noroeste 0 -- -- 4
2017-08-06 17:00:00 39.9 20 Oeste 33 Oeste 0 -- -- 6
2017-08-06 16:00:00 39.7 11 Sudoeste 24 Oeste 0 -- -- 9
2017-08-06 15:00:00 38.1 17 Sudoeste 29 Sudoeste 0 -- -- 10
2017-08-06 14:00:00 37.3 6 Sudoeste 20 Oeste 0 -- -- 10
2017-08-06 13:00:00 34.5 4 Noroeste 11 Norte 0 -- -- 17
2017-08-06 12:00:00 33.8 3 Sur 9 Nordeste 0 -- -- 20
2017-08-06 11:00:00 29.6 6 Nordeste 9 Nordeste 0 -- -- 26
2017-08-06 10:00:00 28.4 4 Nordeste 8 Nordeste 0 -- -- 27
2017-08-06 09:00:00 25.1 6 Nordeste 9 Este 0 -- -- 31
2017-08-06 08:00:00 25.1 7 Este 9 Este 0 -- -- 30
2017-08-06 07:00:00 25.3 6 Este 8 Nordeste 0 -- -- 28
2017-08-06 06:00:00 26.8 2 Norte 10 Oeste 0 -- -- 25
2017-08-06 05:00:00 26.9 0 Calma 4 Sudeste 0 -- -- 24
2017-08-06 04:00:00 27.7 6 Este 10 Este 0 -- -- 23
2017-08-06 03:00:00 27.6 4 Sur 11 Sudeste 0 -- -- 23
2017-08-06 02:00:00 27.2 10 Sur 24 Sur 0 -- -- 23
2017-08-06 01:00:00 28.4 19 Sur 24 Sur 0 -- -- 22
2017-08-06 00:00:00 29.2 16 Sur 22 Sur 0 -- -- 20
2017-08-05 23:00:00 30.9 19 Sur 26 Sudoeste 0 -- -- 17
2017-08-05 22:00:00 32.3 19 Sur 26 Sur 0 -- -- 16
2017-08-05 21:00:00 35.3 18 Sudoeste 28 Sudoeste 0 -- -- 13
2017-08-05 20:00:00 38 19 Sudoeste 31 Sudoeste 0 -- -- 10
2017-08-05 19:00:00 39.6 18 Sudoeste 32 Oeste 0 -- -- 9
2017-08-05 18:00:00 40.3 11 Oeste 32 Sudoeste 0 -- -- 9
2017-08-05 17:00:00 40.2 10 Sudoeste 33 Sur 0 -- -- 9
2017-08-05 16:00:00 39.6 10 Noroeste 30 Sur 0 -- -- 9
2017-08-05 15:00:00 39.4 16 Sudoeste 32 Sudoeste 0 -- -- 9
2017-08-05 14:00:00 39 21 Sudoeste 34 Sudoeste 0 -- -- 10
2017-08-05 13:00:00 38 16 Sudoeste 25 Sudoeste 0 -- -- 11
2017-08-05 12:00:00 36.8 16 Sur 26 Sur 0 -- -- 12
2017-08-05 11:00:00 33.5 4 Nordeste 7 Nordeste 0 -- -- 19
2017-08-05 10:00:00 30.1 4 Nordeste 6 Nordeste 0 -- -- 23
2017-08-05 09:00:00 27.4 4 Nordeste 12 Sudeste 0 -- -- 26
2017-08-05 08:00:00 25.7 8 Este 17 Sur 0 -- -- 24
2017-08-05 07:00:00 25.4 11 Sur 16 Sur 0 -- -- 25
2017-08-05 06:00:00 26.3 6 Sudeste 14 Sur 0 -- -- 24
2017-08-05 05:00:00 26.8 9 Sur 15 Sur 0 -- -- 23
2017-08-05 04:00:00 27 10 Sur 15 Sur 0 -- -- 22
2017-08-05 03:00:00 27.7 11 Sur 18 Sudeste 0 -- -- 22
2017-08-05 02:00:00 28.6 12 Sur 16 Sudeste 0 -- -- 20
2017-08-05 01:00:00 29.7 12 Sur 15 Sudoeste 0 -- -- 18
2017-08-05 00:00:00 31.5 13 Sudoeste 25 Sudoeste 0 -- -- 17
2017-08-04 23:00:00 31.7 17 Sur 23 Sur 0 -- -- 16
2017-08-04 22:00:00 33.9 16 Sur 22 Sur -- -- -- 14
2017-08-04 21:00:00 38.1 5 Noroeste 20 Noroeste 0 -- -- 9
2017-08-04 20:00:00 39.3 10 Noroeste 22 Noroeste 0 -- -- 7
2017-08-04 19:00:00 40.1 15 Noroeste 24 Noroeste 0 -- -- 6
2017-08-04 18:00:00 40.7 9 Noroeste 21 Oeste 0 -- -- 6
2017-08-04 17:00:00 41.1 5 Noroeste 24 Oeste 0 -- -- 5
2017-08-04 16:00:00 40.3 10 Sudoeste 23 Oeste 0 -- -- 6
2017-08-04 15:00:00 39.1 8 Oeste 20 Oeste 0 -- -- 6
2017-08-04 14:00:00 38.2 5 Noroeste 15 Noroeste 0 -- -- 6
2017-08-04 13:00:00 36.8 5 Norte 10 Norte 0 -- -- 7
2017-08-04 12:00:00 34 6 Norte 10 Norte 0 -- -- 12
2017-08-04 11:00:00 30.1 5 Norte 10 Nordeste 0 -- -- 18
2017-08-04 10:00:00 27.2 5 Nordeste 9 Nordeste 0 -- -- 23
2017-08-04 09:00:00 24.3 6 Nordeste 12 Este 0 -- -- 28
2017-08-04 08:00:00 22.3 8 Nordeste 13 Nordeste 0 -- -- 31
2017-08-04 07:00:00 22.4 10 Nordeste 13 Nordeste 0 -- -- 29
2017-08-04 06:00:00 23.5 8 Este 13 Este 0 -- -- 27
2017-08-04 05:00:00 25.9 10 Este 13 Este 0 -- -- 22
2017-08-04 04:00:00 26.9 6 Este 14 Sur 0 -- -- 19
2017-08-04 03:00:00 27.1 10 Sudeste 13 Sudeste 0 -- -- 19
2017-08-04 02:00:00 28.6 6 Sudeste 11 Nordeste 0 -- -- 16
2017-08-04 01:00:00 29.4 6 Norte 9 Norte 0 -- -- 15
2017-08-04 00:00:00 30.9 8 Noroeste 15 Oeste 0 -- -- 13
2017-08-03 23:00:00 31.9 4 Oeste 8 Oeste 0 -- -- 12
2017-08-03 22:00:00 33 7 Oeste 13 Oeste 0 -- -- 11
2017-08-03 21:00:00 36.1 9 Oeste 18 Noroeste 0 -- -- 9
2017-08-03 20:00:00 37.7 9 Oeste 23 Noroeste 0 -- -- 7
2017-08-03 19:00:00 37.9 12 Noroeste 25 Oeste 0 -- -- 6
2017-08-03 18:00:00 38.4 12 Oeste 28 Oeste 0 -- -- 5
2017-08-03 17:00:00 38.2 12 Sudoeste 27 Noroeste 0 -- -- 7
2017-08-03 16:00:00 37.8 11 Noroeste 27 Noroeste 0 -- -- 8
2017-08-03 15:00:00 36.9 9 Noroeste 46 Noroeste 0 -- -- 9
2017-08-03 14:00:00 36.1 9 Noroeste 27 Noroeste 0 -- -- 10
2017-08-03 13:00:00 34.6 10 Norte 17 Noroeste 0 -- -- 12
2017-08-03 12:00:00 32.6 4 Nordeste 11 Nordeste 0 -- -- 14
2017-08-03 11:00:00 29.1 6 Nordeste 14 Nordeste 0 -- -- 20
2017-08-03 10:00:00 25.2 11 Nordeste 14 Nordeste 0 -- -- 26
2017-08-03 09:00:00 23 6 Nordeste 10 Nordeste 0 -- -- 31
2017-08-03 08:00:00 21 5 Este 13 Este 0 -- -- 34
2017-08-03 07:00:00 21.3 8 Este 12 Este 0 -- -- 33
2017-08-03 06:00:00 22.1 5 Nordeste 10 Este 0 -- -- 28
2017-08-03 05:00:00 24.2 6 Este 12 Sudeste 0 -- -- 24
2017-08-03 04:00:00 24 8 Sudeste 10 Sudeste 0 -- -- 25
2017-08-03 03:00:00 25.4 7 Sudeste 9 Este 0 -- -- 22
2017-08-03 02:00:00 25.8 6 Sudeste 11 Sur 0 -- -- 23
2017-08-03 01:00:00 25.6 6 Sur 8 Sur 0 -- -- 22
2017-08-03 00:00:00 27.7 5 Nordeste 11 Oeste 0 -- -- 16
2017-08-02 23:00:00 29.4 4 Oeste 10 Oeste 0 -- -- 14
2017-08-02 22:00:00 30.8 6 Noroeste 14 Noroeste 0 -- -- 14
2017-08-02 21:00:00 33.1 9 Noroeste 23 Noroeste 0 -- -- 12
2017-08-02 20:00:00 34.5 14 Noroeste 24 Noroeste 0 -- -- 11
2017-08-02 19:00:00 35.1 15 Noroeste 30 Oeste 0 -- -- 10
2017-08-02 18:00:00 35.6 14 Noroeste 27 Oeste 0 -- -- 10
2017-08-02 17:00:00 35.8 13 Noroeste 24 Oeste 0 -- -- 11
2017-08-02 16:00:00 35.1 12 Oeste 21 Sudoeste 0 -- -- 12
2017-08-02 15:00:00 34.2 7 Oeste 20 Oeste 0 -- -- 12
2017-08-02 14:00:00 32.9 11 Oeste 19 Sudoeste 0 -- -- 14
2017-08-02 13:00:00 31.9 9 Noroeste 19 Oeste 0 -- -- 17
2017-08-02 12:00:00 30.1 6 Noroeste 15 Noroeste 0 -- -- 20
2017-08-02 11:00:00 27.4 4 Nordeste 9 Nordeste 0 -- -- 24
2017-08-02 10:00:00 23.8 3 Norte 6 Nordeste 0 -- -- 30
2017-08-02 09:00:00 21.6 2 Nordeste 12 Este 0 -- -- 36
2017-08-02 08:00:00 19.5 6 Este 10 Este 0 -- -- 40
2017-08-02 07:00:00 19.4 6 Nordeste 9 Este 0 -- -- 38
2017-08-02 06:00:00 19.8 0 Calma 6 Este 0 -- -- 37
2017-08-02 05:00:00 20.5 2 Norte 6 Nordeste 0 -- -- 36
2017-08-02 04:00:00 21 2 Nordeste 8 Nordeste 0 -- -- 34
2017-08-02 03:00:00 21.6 4 Nordeste 11 Norte 0 -- -- 33
2017-08-02 02:00:00 22.5 2 Nordeste 8 Este 0 -- -- 31
2017-08-02 01:00:00 23.9 6 Este 12 Sudeste 0 -- -- 29
2017-08-02 00:00:00 24 8 Sur 12 Sur 0 -- -- 29
2017-08-01 23:00:00 24.7 7 Sur 12 Sudoeste 0 -- -- 27
2017-08-01 22:00:00 26.5 6 Oeste 18 Oeste 0 -- -- 25
2017-08-01 21:00:00 28.2 4 Norte 18 Oeste 0 -- -- 23
2017-08-01 20:00:00 27.7 12 Oeste 24 Noroeste 0 -- -- 25
2017-08-01 19:00:00 30 13 Noroeste 27 Noroeste 0 -- -- 23
2017-08-01 18:00:00 30.6 14 Noroeste 26 Oeste 0 -- -- 22
2017-08-01 17:00:00 30.3 16 Noroeste 26 Oeste 0 -- -- 23
2017-08-01 16:00:00 30.2 12 Noroeste 24 Noroeste 0 -- -- 21
2017-08-01 15:00:00 29.7 11 Oeste 19 Noroeste 0 -- -- 20
2017-08-01 14:00:00 28.8 4 Oeste 15 Oeste 0 -- -- 21
2017-08-01 13:00:00 27.5 5 Noroeste 19 Noroeste 0 -- -- 24
2017-08-01 12:00:00 25.6 9 Noroeste 15 Norte 0 -- -- 29
2017-08-01 11:00:00 22.2 4 Nordeste 13 Noroeste 0 -- -- 39
2017-08-01 10:00:00 21.6 3 Noroeste 9 Noroeste 0 -- -- 37
2017-08-01 09:00:00 19.9 4 Norte 6 Norte 0 -- -- 37
2017-08-01 08:00:00 20 2 Noroeste 5 Noroeste 0 -- -- 36
2017-08-01 07:00:00 19.6 5 Sur 12 Este 0 -- -- 35
2017-08-01 06:00:00 20.3 8 Este 11 Este 0 -- -- 36
2017-08-01 05:00:00 20.6 7 Este 12 Sudeste 0 -- -- 42
2017-08-01 04:00:00 20.8 5 Noroeste 10 Noroeste 0 -- -- 38
2017-08-01 03:00:00 22.4 3 Noroeste 8 Nordeste 0 -- -- 29
2017-08-01 02:00:00 23.8 3 Noroeste 7 Nordeste 0 -- -- 27
2017-08-01 01:00:00 24.5 5 Sudoeste 21 Oeste 0 -- -- 25
2017-08-01 00:00:00 25.8 13 Oeste 27 Oeste 0 -- -- 23
2017-07-31 23:00:00 27.4 17 Oeste 26 Oeste 0 -- -- 21
2017-07-31 22:00:00 29.1 13 Oeste 25 Noroeste 0 -- -- 21
2017-07-31 21:00:00 31.2 18 Noroeste 30 Noroeste 0 -- -- 21
2017-07-31 20:00:00 33.5 21 Noroeste 32 Oeste 0 -- -- 22
2017-07-31 19:00:00 34.4 17 Norte 31 Noroeste 0 -- -- 18
2017-07-31 18:00:00 35.1 16 Noroeste 30 Noroeste 0 -- -- 15
2017-07-31 17:00:00 34.8 16 Noroeste 33 Noroeste 0 -- -- 15
2017-07-31 16:00:00 34.8 15 Oeste 29 Noroeste 0 -- -- 15
2017-07-31 15:00:00 33.7 14 Noroeste 25 Noroeste 0 -- -- 17
2017-07-31 14:00:00 32.8 12 Noroeste 22 Noroeste 0 -- -- 20
2017-07-31 13:00:00 31.4 11 Noroeste 18 Noroeste 0 -- -- 22
2017-07-31 12:00:00 29.6 3 Noroeste 11 Noroeste 0 -- -- 28
2017-07-31 11:00:00 27.2 3 Oeste 9 Oeste 0 -- -- 31
2017-07-31 10:00:00 25.6 3 Oeste 8 Nordeste 0 -- -- 34
2017-07-31 09:00:00 24.5 4 Nordeste 8 Nordeste 0 -- -- 35
2017-07-31 08:00:00 22.6 7 Nordeste 9 Nordeste 0 -- -- 40
2017-07-31 07:00:00 23 6 Nordeste 8 Nordeste 0 -- -- 38
2017-07-31 06:00:00 23.1 6 Nordeste 8 Nordeste 0 -- -- 37
2017-07-31 05:00:00 25 2 Norte 5 Nordeste 0 -- -- 36
2017-07-31 04:00:00 25.7 4 Norte 6 Oeste 0 -- -- 32
2017-07-31 03:00:00 26.7 0 Calma 6 Nordeste 0 -- -- 31
2017-07-31 02:00:00 27.7 4 Nordeste 7 Nordeste 0 -- -- 31
2017-07-31 01:00:00 28.3 3 Noroeste 11 Oeste 0 -- -- 29
2017-07-31 00:00:00 28.8 9 Sudoeste 15 Oeste 0 -- -- 29
2017-07-30 23:00:00 30.1 10 Oeste 14 Sudoeste 0 -- -- 29
2017-07-30 22:00:00 32.4 9 Oeste 20 Noroeste 0 -- -- 23
2017-07-30 21:00:00 34.7 14 Noroeste 27 Oeste 0 -- -- 20
2017-07-30 20:00:00 36.8 17 Noroeste 30 Noroeste 0 -- -- 16
2017-07-30 19:00:00 38 17 Noroeste 29 Oeste 0 -- -- 15
2017-07-30 18:00:00 38.9 15 Noroeste 26 Noroeste 0 -- -- 13
2017-07-30 17:00:00 38.6 13 Noroeste 29 Noroeste 0 -- -- 12
2017-07-30 16:00:00 38.8 13 Noroeste 26 Sur 0 -- -- 10
2017-07-30 15:00:00 38.5 17 Sudoeste 38 Sudoeste 0 -- -- 7
2017-07-30 14:00:00 37.8 17 Sudoeste 31 Sur 0 -- -- 8
2017-07-30 13:00:00 36.9 12 Sudoeste 24 Sur 0 -- -- 11
2017-07-30 12:00:00 34.8 6 Sudeste 15 Sur 0 -- -- 12
2017-07-30 11:00:00 30.8 6 Nordeste 9 Nordeste 0 -- -- 18
2017-07-30 10:00:00 26.6 6 Nordeste 9 Nordeste 0 -- -- 24
2017-07-30 09:00:00 24.5 3 Nordeste 11 Este 0 -- -- 27
2017-07-30 08:00:00 22.5 8 Nordeste 14 Nordeste 0 -- -- 30
2017-07-30 07:00:00 22.6 7 Nordeste 13 Nordeste 0 -- -- 28
2017-07-30 06:00:00 23.3 6 Este 12 Nordeste 0 -- -- 27
2017-07-30 05:00:00 24.1 7 Nordeste 13 Nordeste 0 -- -- 26
2017-07-30 04:00:00 26 8 Este 11 Este 0 -- -- 20
2017-07-30 03:00:00 27.1 8 Este 12 Este 0 -- -- 19
2017-07-30 02:00:00 28.3 5 Este 11 Este 0 -- -- 17
2017-07-30 01:00:00 28.7 7 Sudeste 12 Este 0 -- -- 17
2017-07-30 00:00:00 30.1 5 Noroeste 10 Oeste 0 -- -- 15
2017-07-29 23:00:00 30.8 5 Oeste 15 Oeste 0 -- -- 14
2017-07-29 22:00:00 32.1 10 Oeste 20 Noroeste 0 -- -- 13
2017-07-29 21:00:00 35.3 15 Oeste 26 Oeste 0 -- -- 11
2017-07-29 20:00:00 36.9 19 Noroeste 33 Oeste 0 -- -- 8
2017-07-29 19:00:00 37.9 18 Noroeste 32 Noroeste 0 -- -- 8
2017-07-29 18:00:00 38.2 18 Noroeste 34 Noroeste 0 -- -- 6
2017-07-29 17:00:00 37.9 15 Noroeste 35 Noroeste 0 -- -- 8
2017-07-29 16:00:00 38.1 18 Noroeste 30 Noroeste 0 -- -- 8
2017-07-29 15:00:00 38.1 15 Noroeste 27 Oeste 0 -- -- 7
2017-07-29 14:00:00 37.3 9 Oeste 19 Oeste 0 -- -- 7
2017-07-29 13:00:00 35.6 6 Oeste 13 Oeste 0 -- -- 9
2017-07-29 12:00:00 33.4 3 Norte 9 Nordeste 0 -- -- 12
2017-07-29 11:00:00 29.9 5 Norte 9 Norte 0 -- -- 15
2017-07-29 10:00:00 26.9 3 Norte 8 Nordeste 0 -- -- 22
2017-07-29 09:00:00 24 7 Nordeste 9 Nordeste 0 -- -- 25
2017-07-29 08:00:00 22 7 Nordeste 10 Nordeste 0 -- -- 25
2017-07-29 07:00:00 22.5 8 Este 13 Nordeste 0 -- -- 25
2017-07-29 06:00:00 23.4 9 Nordeste 13 Nordeste 0 -- -- 25
2017-07-29 05:00:00 24.6 7 Este 12 Nordeste 0 -- -- 20
2017-07-29 04:00:00 26.2 8 Nordeste 15 Este 0 -- -- 17
2017-07-29 03:00:00 26.6 7 Este 11 Este 0 -- -- 17
2017-07-29 02:00:00 27 6 Este 10 Este 0 -- -- 17
2017-07-29 01:00:00 28.4 6 Nordeste 9 Nordeste 0 -- -- 14
2017-07-29 00:00:00 29.2 2 Este 17 Sur 0 -- -- 14
2017-07-28 23:00:00 29.7 9 Sudoeste 16 Oeste 0 -- -- 13
2017-07-28 22:00:00 33.1 12 Oeste 23 Oeste 0 -- -- 10
2017-07-28 21:00:00 35.8 15 Noroeste 27 Noroeste 0 -- -- 8
2017-07-28 20:00:00 37.5 13 Noroeste 27 Noroeste 0 -- -- 8
2017-07-28 19:00:00 37.7 13 Norte 30 Noroeste 0 -- -- 8
2017-07-28 18:00:00 38.2 17 Noroeste 32 Noroeste 0 -- -- 6
2017-07-28 17:00:00 38.3 13 Noroeste 30 Oeste 0 -- -- 7
2017-07-28 16:00:00 38.1 13 Noroeste 29 Sudoeste 0 -- -- 8
2017-07-28 15:00:00 37.6 10 Noroeste 25 Noroeste 0 -- -- 9
2017-07-28 14:00:00 37 4 Oeste 17 Noroeste 0 -- -- 12
2017-07-28 13:00:00 35.5 9 Noroeste 15 Noroeste 0 -- -- 14
2017-07-28 12:00:00 33.4 4 Sudoeste 10 Sur 0 -- -- 15
2017-07-28 11:00:00 30.3 2 Noroeste 9 Nordeste 0 -- -- 25
2017-07-28 10:00:00 26.7 7 Nordeste 14 Nordeste 0 -- -- 32
2017-07-28 09:00:00 23.9 9 Nordeste 14 Nordeste 0 -- -- 37
2017-07-28 08:00:00 22.5 3 Este 10 Nordeste 0 -- -- 36
2017-07-28 07:00:00 22.2 11 Nordeste 12 Nordeste 0 -- -- 41
2017-07-28 06:00:00 23.7 7 Nordeste 13 Nordeste 0 -- -- 37
2017-07-28 05:00:00 24.5 10 Nordeste 12 Nordeste 0 -- -- 35
2017-07-28 04:00:00 24.8 4 Sudeste 14 Sur 0 -- -- 37
2017-07-28 03:00:00 24.8 14 Sur 19 Sur 0 -- -- 38
2017-07-28 02:00:00 26.2 11 Sur 14 Sur 0 -- -- 35
2017-07-28 01:00:00 26.8 9 Sudeste 15 Sur 0 -- -- 35
2017-07-28 00:00:00 27.5 10 Sur 15 Sudoeste 0 -- -- 32
2017-07-27 23:00:00 30.1 13 Sudoeste 17 Sudoeste 0 -- -- 24
2017-07-27 22:00:00 32.2 9 Oeste 15 Oeste 0 -- -- 19
2017-07-27 21:00:00 34.8 12 Noroeste 29 Noroeste 0 -- -- 16
2017-07-27 20:00:00 36.2 14 Noroeste 25 Noroeste 0 -- -- 14
2017-07-27 19:00:00 37 9 Norte 28 Oeste 0 -- -- 14
2017-07-27 18:00:00 37.5 13 Oeste 28 Oeste 0 -- -- 15
2017-07-27 17:00:00 37.6 11 Oeste 27 Oeste 0 -- -- 13
2017-07-27 16:00:00 36.9 13 Sudoeste 27 Sudoeste 0 -- -- 13
2017-07-27 15:00:00 36.2 11 Oeste 34 Sudoeste 0 -- -- 16
2017-07-27 14:00:00 35 12 Sudoeste 22 Sudoeste 0 -- -- 19
2017-07-27 13:00:00 33.8 5 Sur 19 Sur 0 -- -- 21
2017-07-27 12:00:00 32.1 7 Sur 17 Sur 0 -- -- 23
2017-07-27 11:00:00 29.6 5 Sudeste 10 Sudeste 0 -- -- 31
2017-07-27 10:00:00 25.9 4 Nordeste 8 Este 0 -- -- 38
2017-07-27 09:00:00 23 4 Este 13 Sudeste 0 -- -- 52
2017-07-27 08:00:00 21.2 10 Sudeste 18 Sur 0 -- -- 64
2017-07-27 07:00:00 21.2 6 Sudeste 10 Sur 0 -- -- 62
2017-07-27 06:00:00 21.7 5 Sur 18 Sur 0 -- -- 60
2017-07-27 05:00:00 22 14 Sur 18 Sur 0 -- -- 58
2017-07-27 04:00:00 22.9 14 Sur 19 Sur 0 -- -- 54
2017-07-27 03:00:00 24.6 9 Sur 13 Sur 0 -- -- 33
2017-07-27 02:00:00 26.3 5 Este 7 Nordeste 0 -- -- 28
2017-07-27 01:00:00 27 3 Nordeste 10 Norte 0 -- -- 26
2017-07-27 00:00:00 28.3 7 Noroeste 9 Noroeste 0 -- -- 23
2017-07-26 23:00:00 29.5 2 Este 4 Norte 0 -- -- 20
2017-07-26 22:00:00 30.3 4 Nordeste 7 Noroeste 0 -- -- 20
2017-07-26 21:00:00 31.8 5 Noroeste 14 Noroeste 0 -- -- 19
2017-07-26 20:00:00 32.7 9 Noroeste 23 Noroeste 0 -- -- 17
2017-07-26 19:00:00 33.3 12 Noroeste 23 Noroeste 0 -- -- 16
2017-07-26 18:00:00 33.8 14 Noroeste 23 Oeste 0 -- -- 15
2017-07-26 17:00:00 33.9 12 Noroeste 23 Noroeste 0 -- -- 15
2017-07-26 16:00:00 32.9 11 Noroeste 22 Noroeste 0 -- -- 22
2017-07-26 15:00:00 32.8 14 Noroeste 24 Noroeste 0 -- -- 26
2017-07-26 14:00:00 32.7 7 Oeste 19 Oeste 0 -- -- 24
2017-07-26 13:00:00 30.5 8 Oeste 17 Oeste 0 -- -- 28
2017-07-26 12:00:00 29.1 5 Noroeste 13 Oeste 0 -- -- 36
2017-07-26 11:00:00 26.9 6 Sudoeste 21 Sur 0 -- -- 41
2017-07-26 10:00:00 25.2 12 Sur 17 Sur 0 -- -- 55
2017-07-26 09:00:00 22.7 8 Sur 14 Sur 0 -- -- 63
2017-07-26 08:00:00 20.9 6 Sur 13 Sur 0 -- -- 68
2017-07-26 07:00:00 20.8 9 Sur 14 Sur 0 -- -- 67
2017-07-26 06:00:00 21.5 6 Sur 8 Sur 0 -- -- 62
2017-07-26 05:00:00 22 5 Sudeste 10 Sudeste 0 -- -- 57
2017-07-26 04:00:00 22.7 0 Calma 6 Noroeste 0 -- -- 47
2017-07-26 03:00:00 23.7 4 Noroeste 8 Noroeste 0 -- -- 43
2017-07-26 02:00:00 24.9 3 Sur 15 Sur 0 -- -- 49
2017-07-26 01:00:00 25.4 10 Sur 14 Sur 0 -- -- 47
2017-07-26 00:00:00 26.2 10 Sur 12 Sur 0 -- -- 43
2017-07-25 23:00:00 28.3 10 Sur 17 Sudoeste 0 -- -- 37
2017-07-25 22:00:00 30.8 13 Sudoeste 30 Oeste 0 -- -- 28
2017-07-25 21:00:00 33 21 Oeste 30 Sudoeste 0 -- -- 23
2017-07-25 20:00:00 35 17 Oeste 31 Oeste 0 -- -- 14
2017-07-25 19:00:00 36.4 18 Oeste 35 Noroeste 0 -- -- 11
2017-07-25 18:00:00 36.8 19 Noroeste 39 Noroeste 0 -- -- 11
2017-07-25 17:00:00 36.9 16 Oeste 30 Oeste 0 -- -- 11
2017-07-25 16:00:00 36.3 13 Noroeste 31 Oeste 0 -- -- 12
2017-07-25 15:00:00 35.8 13 Oeste 27 Oeste 0 -- -- 15
2017-07-25 14:00:00 35 13 Noroeste 27 Noroeste 0 -- -- 12
2017-07-25 13:00:00 33.8 6 Oeste 15 Oeste 0 -- -- 17
2017-07-25 12:00:00 32 6 Norte 12 Oeste 0 -- -- 21
2017-07-25 11:00:00 29.6 4 Nordeste 8 Nordeste 0 -- -- 25
2017-07-25 10:00:00 27 3 Nordeste 6 Nordeste 0 -- -- 30
2017-07-25 09:00:00 24.6 0 Calma 12 Nordeste 0 -- -- 35
2017-07-25 08:00:00 22.8 8 Este 9 Este 0 -- -- 37
2017-07-25 07:00:00 22.6 5 Nordeste 8 Este 0 -- -- 37
2017-07-25 06:00:00 23.5 7 Nordeste 9 Nordeste 0 -- -- 35
2017-07-25 05:00:00 24.6 4 Este 9 Este 0 -- -- 32
2017-07-25 04:00:00 25.3 5 Este 8 Este 0 -- -- 31
2017-07-25 03:00:00 27 5 Este 9 Este 0 -- -- 28
2017-07-25 02:00:00 27.6 3 Este 9 Este 0 -- -- 26
2017-07-25 01:00:00 28.1 6 Este 10 Este 0 -- -- 26
2017-07-25 00:00:00 28.2 4 Sudeste 19 Oeste 0 -- -- 27
2017-07-24 23:00:00 30.2 9 Oeste 24 Oeste 0 -- -- 22
2017-07-24 22:00:00 32.3 6 Noroeste 15 Noroeste 0 -- -- 15
2017-07-24 21:00:00 34.5 9 Noroeste 25 Noroeste 0 -- -- 14
2017-07-24 20:00:00 35.4 14 Noroeste 27 Noroeste 0 -- -- 13
2017-07-24 19:00:00 35.6 13 Noroeste 29 Oeste 0 -- -- 12
2017-07-24 18:00:00 35.5 17 Noroeste 34 Noroeste 0 -- -- 11
2017-07-24 17:00:00 35.2 19 Noroeste 35 Norte 0 -- -- 12
2017-07-24 16:00:00 35.1 18 Noroeste 31 Noroeste 0 -- -- 10
2017-07-24 15:00:00 34.8 12 Noroeste 28 Noroeste 0 -- -- 11
2017-07-24 14:00:00 34.2 16 Noroeste 27 Norte 0 -- -- 13
2017-07-24 13:00:00 32.7 9 Noroeste 16 Noroeste 0 -- -- 17
2017-07-24 12:00:00 30.1 4 Sudoeste 10 Oeste 0 -- -- 20
2017-07-24 11:00:00 27.6 5 Oeste 10 Noroeste 0 -- -- 24
2017-07-24 10:00:00 25.6 3 Noroeste 9 Nordeste 0 -- -- 28
2017-07-24 09:00:00 22.5 6 Nordeste 13 Nordeste 0 -- -- 37
2017-07-24 08:00:00 20.9 7 Nordeste 9 Nordeste 0 -- -- 36
2017-07-24 07:00:00 21.3 6 Este 9 Este 0 -- -- 36
2017-07-24 06:00:00 22.5 8 Este 11 Este 0 -- -- 34
2017-07-24 05:00:00 22 3 Norte 5 Sudeste 0 -- -- 35
2017-07-24 04:00:00 23.9 4 Nordeste 9 Sur 0 -- -- 30
2017-07-24 03:00:00 24.2 8 Sudeste 14 Sudeste 0 -- -- 32
2017-07-24 02:00:00 25 4 Este 11 Sudoeste 0 -- -- 29
2017-07-24 01:00:00 25.1 9 Sudoeste 12 Sudoeste 0 -- -- 29
2017-07-24 00:00:00 26.6 2 Sudeste 20 Oeste 0 -- -- 27
2017-07-23 23:00:00 27.6 14 Oeste 21 Oeste 0 -- -- 20
2017-07-23 22:00:00 30.6 6 Oeste 16 Noroeste 0 -- -- 10
2017-07-23 21:00:00 33.5 12 Noroeste 24 Noroeste 0 -- -- 8
2017-07-23 20:00:00 34.7 12 Oeste 24 Noroeste 0 -- -- 9
2017-07-23 19:00:00 35 14 Noroeste 27 Noroeste 0 -- -- 9
2017-07-23 18:00:00 35.6 11 Noroeste 24 Oeste 0 -- -- 8
2017-07-23 17:00:00 35.1 13 Oeste 28 Noroeste 0 -- -- 8
2017-07-23 16:00:00 34.4 12 Oeste 23 Oeste 0 -- -- 8
2017-07-23 15:00:00 33.5 10 Oeste 21 Noroeste 0 -- -- 12
2017-07-23 14:00:00 32.2 8 Noroeste 20 Oeste 0 -- -- 14
2017-07-23 13:00:00 30.8 7 Noroeste 16 Noroeste 0 -- -- 17
2017-07-23 12:00:00 29 5 Noroeste 13 Oeste 0 -- -- 21
2017-07-23 11:00:00 26.8 5 Noroeste 12 Oeste 0 -- -- 23
2017-07-23 10:00:00 25.3 5 Nordeste 8 Este 0 -- -- 27
2017-07-23 09:00:00 21.9 6 Nordeste 11 Nordeste 0 -- -- 36
2017-07-23 08:00:00 20.1 5 Nordeste 6 Nordeste 0 -- -- 39
2017-07-23 07:00:00 20.1 2 Norte 8 Noroeste 0 -- -- 38
2017-07-23 06:00:00 20.7 4 Nordeste 6 Norte 0 -- -- 37
2017-07-23 05:00:00 22.2 4 Este 9 Este 0 -- -- 34
2017-07-23 04:00:00 22.2 8 Nordeste 12 Este 0 -- -- 34
2017-07-23 03:00:00 22.4 7 Nordeste 11 Nordeste 0 -- -- 33
2017-07-23 02:00:00 23.1 7 Nordeste 12 Sur 0 -- -- 29
2017-07-23 01:00:00 23.7 8 Sur 12 Sur 0 -- -- 31
2017-07-23 00:00:00 24.8 8 Sudoeste 16 Noroeste 0 -- -- 29